createdAt,value
2018-05-08T00:00:12.136Z,81.48
2018-05-08T00:01:12.156Z,81.96
2018-05-08T00:02:12.304Z,81.67
2018-05-08T00:03:12.197Z,81.48
2018-05-08T00:04:12.225Z,81.96
2018-05-08T00:05:12.220Z,82.24
2018-05-08T00:06:12.233Z,82.05
2018-05-08T00:07:12.393Z,82.05
2018-05-08T00:08:12.253Z,82.15
2018-05-08T00:09:12.291Z,82.34
2018-05-08T00:10:12.317Z,82.43
2018-05-08T00:11:12.301Z,82.63
2018-05-08T00:12:12.416Z,82.43
2018-05-08T00:13:12.333Z,82.24
2018-05-08T00:14:12.391Z,82.53
2018-05-08T00:15:12.358Z,81.96
2018-05-08T00:16:12.375Z,82.15
2018-05-08T00:17:12.506Z,82.43
2018-05-08T00:18:12.422Z,82.43
2018-05-08T00:19:12.417Z,82.43
2018-05-08T00:20:12.463Z,82.63
2018-05-08T00:21:12.474Z,82.92
2018-05-08T00:22:12.570Z,83.11
2018-05-08T00:23:12.503Z,82.73
2018-05-08T00:24:12.504Z,82.82
2018-05-08T00:25:12.536Z,83.30
2018-05-08T00:26:12.519Z,83.20
2018-05-08T00:27:12.642Z,83.01
2018-05-08T00:28:12.554Z,83.20
2018-05-08T00:29:12.561Z,83.30
2018-05-08T00:30:12.576Z,83.30
2018-05-08T00:31:12.613Z,83.69
2018-05-08T00:32:12.708Z,83.87
2018-05-08T00:33:12.631Z,83.69
2018-05-08T00:34:12.642Z,83.78
2018-05-08T00:35:12.646Z,83.69
2018-05-08T00:36:12.697Z,83.69
2018-05-08T00:37:12.677Z,83.59
2018-05-08T00:38:12.826Z,83.30
2018-05-08T00:39:12.713Z,83.87
2018-05-08T00:40:12.753Z,83.78
2018-05-08T00:41:12.737Z,83.69
2018-05-08T00:42:12.767Z,83.69
2018-05-08T00:43:12.897Z,83.59
2018-05-08T00:44:12.786Z,83.78
2018-05-08T00:45:12.796Z,83.87
2018-05-08T00:46:12.817Z,83.78
2018-05-08T00:47:12.860Z,83.59
2018-05-08T00:48:12.938Z,83.49
2018-05-08T00:49:12.871Z,83.78
2018-05-08T00:50:12.867Z,83.69
2018-05-08T00:51:12.954Z,83.69
2018-05-08T00:52:12.913Z,83.30
2018-05-08T00:53:13.043Z,83.11
2018-05-08T00:54:12.931Z,83.30
2018-05-08T00:55:12.971Z,83.01
2018-05-08T00:56:12.971Z,82.92
2018-05-08T00:57:12.967Z,82.92
2018-05-08T00:58:13.145Z,82.73
2018-05-08T00:59:13.013Z,82.92
2018-05-08T01:00:13.042Z,83.01
2018-05-08T01:01:13.044Z,83.49
2018-05-08T01:02:13.053Z,83.01
2018-05-08T01:03:13.193Z,83.20
2018-05-08T01:04:13.100Z,82.92
2018-05-08T01:05:13.088Z,83.11
2018-05-08T01:06:13.106Z,83.30
2018-05-08T01:07:13.115Z,83.69
2018-05-08T01:08:13.235Z,83.87
2018-05-08T01:09:13.146Z,83.78
2018-05-08T01:10:13.169Z,84.36
2018-05-08T01:11:13.176Z,84.64
2018-05-08T01:12:13.199Z,84.74
2018-05-08T01:13:13.308Z,84.36
2018-05-08T01:14:13.247Z,84.64
2018-05-08T01:15:13.233Z,84.55
2018-05-08T01:16:13.247Z,84.26
2018-05-08T01:17:13.291Z,84.45
2018-05-08T01:18:13.406Z,84.55
2018-05-08T01:19:13.326Z,84.45
2018-05-08T01:20:13.319Z,84.07
2018-05-08T01:21:13.327Z,84.45
2018-05-08T01:22:13.335Z,84.17
2018-05-08T01:23:13.459Z,84.40
2018-05-08T01:24:13.370Z,84.36
2018-05-08T01:25:13.383Z,84.50
2018-05-08T01:26:13.403Z,83.63
2018-05-08T01:27:13.418Z,83.15
2018-05-08T01:28:13.523Z,82.76
2018-05-08T01:29:13.444Z,83.15
2018-05-08T01:30:13.456Z,82.76
2018-05-08T01:31:13.500Z,83.20
2018-05-08T01:32:13.511Z,82.96
2018-05-08T01:33:13.606Z,82.73
2018-05-08T01:34:13.512Z,82.92
2018-05-08T01:35:13.524Z,82.96
2018-05-08T01:36:13.550Z,82.53
2018-05-08T01:37:13.559Z,82.96
2018-05-08T01:38:13.695Z,83.06
2018-05-08T01:39:13.586Z,82.86
2018-05-08T01:40:13.634Z,82.63
2018-05-08T01:41:13.643Z,83.06
2018-05-08T01:42:13.649Z,83.15
2018-05-08T01:43:13.744Z,83.78
2018-05-08T01:44:13.789Z,83.83
2018-05-08T01:45:13.676Z,83.49
2018-05-08T01:46:13.696Z,83.40
2018-05-08T01:47:13.730Z,83.78
2018-05-08T01:48:13.751Z,83.69
2018-05-08T01:49:13.849Z,83.30
2018-05-08T01:50:13.741Z,83.69
2018-05-08T01:51:13.792Z,84.17
2018-05-08T01:52:13.769Z,84.26
2018-05-08T01:53:13.791Z,84.36
2018-05-08T01:54:13.909Z,84.26
2018-05-08T01:55:13.850Z,84.55
2018-05-08T01:56:13.854Z,84.74
2018-05-08T01:57:13.853Z,84.55
2018-05-08T01:58:13.861Z,84.07
2018-05-08T01:59:13.984Z,84.45
2018-05-08T02:00:13.927Z,84.36
2018-05-08T02:01:13.909Z,84.64
2018-05-08T02:02:13.955Z,84.26
2018-05-08T02:03:13.950Z,84.64
2018-05-08T02:04:14.106Z,84.55
2018-05-08T02:05:13.970Z,85.03
2018-05-08T02:06:13.982Z,84.45
2018-05-08T02:07:13.999Z,84.64
2018-05-08T02:08:14.010Z,84.94
2018-05-08T02:09:14.132Z,84.36
2018-05-08T02:10:14.065Z,85.13
2018-05-08T02:11:14.073Z,85.22
2018-05-08T02:12:14.098Z,84.84
2018-05-08T02:13:14.112Z,85.13
2018-05-08T02:14:14.201Z,84.94
2018-05-08T02:15:14.142Z,85.03
2018-05-08T02:16:14.137Z,84.88
2018-05-08T02:17:14.170Z,85.13
2018-05-08T02:18:14.151Z,85.03
2018-05-08T02:19:14.280Z,86.09
2018-05-08T02:20:14.199Z,86.09
2018-05-08T02:21:14.229Z,85.89
2018-05-08T02:22:14.212Z,85.71
2018-05-08T02:23:14.233Z,86.09
2018-05-08T02:24:14.349Z,86.38
2018-05-08T02:25:14.269Z,86.66
2018-05-08T02:26:14.272Z,86.38
2018-05-08T02:27:14.317Z,85.80
2018-05-08T02:28:14.337Z,85.03
2018-05-08T02:29:14.418Z,84.84
2018-05-08T02:30:14.329Z,84.94
2018-05-08T02:31:14.345Z,85.71
2018-05-08T02:32:14.393Z,85.71
2018-05-08T02:33:14.405Z,86.38
2018-05-08T02:34:14.525Z,86.38
2018-05-08T02:35:14.432Z,86.85
2018-05-08T02:36:14.447Z,87.05
2018-05-08T02:37:14.443Z,87.15
2018-05-08T02:38:14.459Z,86.95
2018-05-08T02:39:14.570Z,87.15
2018-05-08T02:40:14.479Z,87.15
2018-05-08T02:41:14.501Z,86.66
2018-05-08T02:42:14.529Z,87.92
2018-05-08T02:43:14.547Z,87.92
2018-05-08T02:44:14.646Z,87.72
2018-05-08T02:45:14.550Z,87.72
2018-05-08T02:46:14.596Z,87.62
2018-05-08T02:47:14.578Z,88.01
2018-05-08T02:48:14.628Z,87.53
2018-05-08T02:49:14.736Z,88.30
2018-05-08T02:50:14.624Z,88.20
2018-05-08T02:51:14.672Z,88.30
2018-05-08T02:52:14.668Z,87.82
2018-05-08T02:53:14.799Z,87.92
2018-05-08T02:54:14.789Z,88.39
2018-05-08T02:55:14.711Z,88.39
2018-05-08T02:56:14.714Z,88.20
2018-05-08T02:57:14.728Z,88.20
2018-05-08T02:58:14.741Z,87.15
2018-05-08T02:59:14.853Z,87.24
2018-05-08T03:00:14.795Z,87.53
2018-05-08T03:01:14.819Z,87.82
2018-05-08T03:02:14.836Z,87.62
2018-05-08T03:03:14.844Z,88.30
2018-05-08T03:04:14.942Z,88.30
2018-05-08T03:05:14.870Z,88.30
2018-05-08T03:06:14.868Z,88.39
2018-05-08T03:07:14.874Z,88.39
2018-05-08T03:08:14.887Z,88.97
2018-05-08T03:09:15.008Z,89.16
2018-05-08T03:10:14.927Z,88.97
2018-05-08T03:11:14.930Z,89.83
2018-05-08T03:12:14.970Z,90.51
2018-05-08T03:13:14.955Z,91.28
2018-05-08T03:14:15.073Z,91.18
2018-05-08T03:15:15.004Z,91.52
2018-05-08T03:16:15.006Z,92.19
2018-05-08T03:17:15.016Z,93.44
2018-05-08T03:18:15.055Z,93.54
2018-05-08T03:19:15.150Z,93.54
2018-05-08T03:20:15.079Z,92.96
2018-05-08T03:21:15.088Z,93.05
2018-05-08T03:22:15.158Z,93.34
2018-05-08T03:23:15.114Z,93.05
2018-05-08T03:24:15.221Z,93.05
2018-05-08T03:25:15.135Z,92.96
2018-05-08T03:26:15.176Z,93.15
2018-05-08T03:27:15.156Z,93.44
2018-05-08T03:28:15.221Z,93.44
2018-05-08T03:29:15.319Z,93.25
2018-05-08T03:30:15.216Z,93.05
2018-05-08T03:31:15.236Z,92.96
2018-05-08T03:32:15.256Z,93.15
2018-05-08T03:33:15.243Z,93.15
2018-05-08T03:34:15.384Z,93.92
2018-05-08T03:35:15.283Z,93.54
2018-05-08T03:36:15.319Z,93.54
2018-05-08T03:37:15.331Z,93.73
2018-05-08T03:38:15.343Z,93.44
2018-05-08T03:39:15.451Z,93.25
2018-05-08T03:40:15.375Z,93.54
2018-05-08T03:41:15.366Z,94.11
2018-05-08T03:42:15.376Z,93.92
2018-05-08T03:43:15.406Z,94.40
2018-05-08T03:44:15.533Z,94.78
2018-05-08T03:45:15.451Z,94.78
2018-05-08T03:46:15.448Z,94.88
2018-05-08T03:47:15.472Z,95.26
2018-05-08T03:48:15.459Z,95.26
2018-05-08T03:49:15.604Z,94.98
2018-05-08T03:50:15.490Z,95.55
2018-05-08T03:51:15.531Z,94.98
2018-05-08T03:52:15.545Z,95.65
2018-05-08T03:53:15.561Z,95.17
2018-05-08T03:54:15.645Z,95.17
2018-05-08T03:55:15.593Z,95.65
2018-05-08T03:56:15.607Z,96.22
2018-05-08T03:57:15.649Z,96.32
2018-05-08T03:58:15.602Z,96.42
2018-05-08T03:59:15.645Z,97.09
2018-05-08T04:00:15.759Z,97.66
2018-05-08T04:01:15.680Z,97.66
2018-05-08T04:02:15.659Z,96.99
2018-05-08T04:03:15.701Z,97.47
2018-05-08T04:04:15.684Z,97.96
2018-05-08T04:05:15.815Z,97.96
2018-05-08T04:06:15.728Z,97.76
2018-05-08T04:07:15.743Z,97.86
2018-05-08T04:08:15.807Z,97.57
2018-05-08T04:09:15.757Z,97.57
2018-05-08T04:10:15.928Z,97.57
2018-05-08T04:11:15.817Z,97.86
2018-05-08T04:12:15.840Z,97.86
2018-05-08T04:13:15.817Z,97.96
2018-05-08T04:14:15.829Z,97.76
2018-05-08T04:15:15.948Z,97.76
2018-05-08T04:16:15.858Z,98.05
2018-05-08T04:17:15.902Z,97.96
2018-05-08T04:18:15.890Z,97.57
2018-05-08T04:19:15.905Z,97.76
2018-05-08T04:20:16.040Z,97.96
2018-05-08T04:21:15.935Z,98.05
2018-05-08T04:22:15.941Z,97.86
2018-05-08T04:23:15.956Z,97.66
2018-05-08T04:24:15.971Z,97.57
2018-05-08T04:25:16.084Z,96.99
2018-05-08T04:26:16.032Z,97.09
2018-05-08T04:27:16.023Z,97.76
2018-05-08T04:28:16.053Z,97.71
2018-05-08T04:29:16.075Z,98.29
2018-05-08T04:30:16.190Z,98.48
2018-05-08T04:31:16.076Z,98.86
2018-05-08T04:32:16.116Z,99.54
2018-05-08T04:33:16.107Z,99.15
2018-05-08T04:34:16.147Z,98.96
2018-05-08T04:35:16.223Z,99.34
2018-05-08T04:36:16.154Z,98.77
2018-05-08T04:37:16.183Z,99.54
2018-05-08T04:38:16.195Z,99.54
2018-05-08T04:39:16.211Z,99.54
2018-05-08T04:40:16.300Z,99.99
2018-05-08T04:41:16.212Z,99.92
2018-05-08T04:42:16.255Z,99.99
2018-05-08T04:43:16.268Z,99.99
2018-05-08T04:44:16.259Z,99.99
2018-05-08T04:45:16.449Z,99.99
2018-05-08T04:46:16.307Z,99.99
2018-05-08T04:47:16.392Z,99.99
2018-05-08T04:48:16.314Z,99.92
2018-05-08T04:49:16.324Z,99.99
2018-05-08T04:50:16.446Z,99.99
2018-05-08T04:51:16.350Z,99.99
2018-05-08T04:52:16.375Z,99.99
2018-05-08T04:53:16.377Z,99.99
2018-05-08T04:54:16.422Z,99.99
2018-05-08T04:55:16.550Z,99.99
2018-05-08T04:56:16.458Z,99.99
2018-05-08T04:57:16.462Z,99.99
2018-05-08T04:58:16.451Z,99.99
2018-05-08T04:59:16.490Z,99.99
2018-05-08T05:00:16.608Z,99.99
2018-05-08T05:01:16.494Z,99.99
2018-05-08T05:02:16.504Z,99.99
2018-05-08T05:03:16.550Z,99.99
2018-05-08T05:04:16.552Z,99.99
2018-05-08T05:05:16.649Z,99.63
2018-05-08T05:06:16.561Z,99.99
2018-05-08T05:07:16.576Z,99.99
2018-05-08T05:08:16.618Z,99.99
2018-05-08T05:09:16.634Z,99.99
2018-05-08T05:10:16.623Z,99.99
2018-05-08T05:11:16.761Z,99.99
2018-05-08T05:12:16.653Z,99.99
2018-05-08T05:13:16.656Z,99.99
2018-05-08T05:14:16.674Z,99.99
2018-05-08T05:15:16.685Z,99.99
2018-05-08T05:16:16.805Z,99.99
2018-05-08T05:17:16.719Z,99.99
2018-05-08T05:18:16.732Z,99.99
2018-05-08T05:19:16.746Z,99.99
2018-05-08T05:20:16.757Z,99.99
2018-05-08T05:21:16.898Z,99.99
2018-05-08T05:22:16.816Z,99.99
2018-05-08T05:23:16.806Z,99.99
2018-05-08T05:24:16.817Z,99.99
2018-05-08T05:25:16.834Z,99.99
2018-05-08T05:26:16.940Z,99.99
2018-05-08T05:27:16.858Z,99.99
2018-05-08T05:28:16.894Z,99.99
2018-05-08T05:29:16.887Z,99.99
2018-05-08T05:30:16.897Z,99.99
2018-05-08T05:31:17.023Z,99.99
2018-05-08T05:32:16.953Z,99.99
2018-05-08T05:33:16.972Z,99.99
2018-05-08T05:34:16.958Z,99.99
2018-05-08T05:35:16.969Z,99.99
2018-05-08T05:36:17.111Z,99.99
2018-05-08T05:37:16.996Z,99.99
2018-05-08T05:38:17.036Z,99.99
2018-05-08T05:39:17.050Z,99.99
2018-05-08T05:40:17.061Z,99.99
2018-05-08T05:41:17.179Z,99.99
2018-05-08T05:42:17.092Z,99.99
2018-05-08T05:43:17.107Z,99.99
2018-05-08T05:44:17.095Z,99.99
2018-05-08T05:45:17.111Z,99.99
2018-05-08T05:46:17.295Z,99.99
2018-05-08T05:47:17.166Z,99.99
2018-05-08T05:48:17.184Z,99.99
2018-05-08T05:49:17.190Z,99.99
2018-05-08T05:50:17.206Z,99.99
2018-05-08T05:51:17.306Z,99.99
2018-05-08T05:52:17.234Z,99.99
2018-05-08T05:53:17.293Z,99.99
2018-05-08T05:54:17.231Z,99.99
2018-05-08T05:55:17.270Z,99.99
2018-05-08T05:56:17.381Z,99.99
2018-05-08T05:57:17.274Z,99.99
2018-05-08T05:58:17.296Z,99.99
2018-05-08T05:59:17.310Z,99.99
2018-05-08T06:00:17.319Z,99.99
2018-05-08T06:01:17.465Z,99.99
2018-05-08T06:02:17.372Z,99.99
2018-05-08T06:03:17.388Z,99.99
2018-05-08T06:04:17.372Z,99.99
2018-05-08T06:05:17.388Z,99.99
2018-05-08T06:06:17.550Z,99.99
2018-05-08T06:07:17.441Z,99.92
2018-05-08T06:08:17.455Z,99.73
2018-05-08T06:09:17.469Z,98.67
2018-05-08T06:10:17.457Z,98.10
2018-05-08T06:11:17.645Z,98.67
2018-05-08T06:12:17.513Z,98.58
2018-05-08T06:13:17.500Z,97.61
2018-05-08T06:14:17.535Z,97.52
2018-05-08T06:15:17.527Z,97.33
2018-05-08T06:16:17.567Z,96.75
2018-05-08T06:17:17.735Z,97.04
2018-05-08T06:18:17.594Z,97.52
2018-05-08T06:19:17.614Z,97.52
2018-05-08T06:20:17.652Z,98.10
2018-05-08T06:21:17.608Z,97.61
2018-05-08T06:22:17.770Z,97.14
2018-05-08T06:23:17.634Z,97.04
2018-05-08T06:24:17.647Z,97.14
2018-05-08T06:25:17.690Z,97.38
2018-05-08T06:26:17.681Z,97.95
2018-05-08T06:27:17.790Z,97.86
2018-05-08T06:28:17.731Z,98.05
2018-05-08T06:29:17.748Z,97.91
2018-05-08T06:30:17.734Z,97.95
2018-05-08T06:31:17.765Z,97.66
2018-05-08T06:32:17.875Z,98.53
2018-05-08T06:33:17.805Z,98.58
2018-05-08T06:34:17.793Z,98.38
2018-05-08T06:35:17.805Z,98.53
2018-05-08T06:36:17.831Z,98.77
2018-05-08T06:37:17.967Z,98.58
2018-05-08T06:38:17.842Z,98.48
2018-05-08T06:39:17.887Z,98.48
2018-05-08T06:40:17.870Z,98.38
2018-05-08T06:41:17.915Z,98.48
2018-05-08T06:42:17.999Z,98.33
2018-05-08T06:43:17.916Z,98.33
2018-05-08T06:44:18.043Z,98.33
2018-05-08T06:45:17.969Z,98.72
2018-05-08T06:46:17.955Z,98.43
2018-05-08T06:47:18.087Z,98.43
2018-05-08T06:48:17.996Z,98.43
2018-05-08T06:49:18.032Z,98.43
2018-05-08T06:50:18.012Z,98.33
2018-05-08T06:51:18.024Z,98.62
2018-05-08T06:52:18.282Z,98.91
2018-05-08T06:53:18.080Z,99.39
2018-05-08T06:54:18.071Z,99.29
2018-05-08T06:55:18.088Z,99.58
2018-05-08T06:56:18.098Z,99.68
2018-05-08T06:57:18.284Z,98.91
2018-05-08T06:58:18.156Z,99.99
2018-05-08T06:59:18.163Z,99.99
2018-05-08T07:00:18.158Z,99.99
2018-05-08T07:01:18.193Z,99.99
2018-05-08T07:02:18.304Z,99.99
2018-05-08T07:03:18.194Z,99.99
2018-05-08T07:04:18.237Z,99.99
2018-05-08T07:05:18.222Z,99.99
2018-05-08T07:06:18.230Z,99.99
2018-05-08T07:07:18.347Z,99.99
2018-05-08T07:08:18.263Z,99.99
2018-05-08T07:09:18.287Z,99.99
2018-05-08T07:10:18.291Z,99.99
2018-05-08T07:11:18.300Z,99.99
2018-05-08T07:12:18.415Z,99.99
2018-05-08T07:13:18.326Z,99.99
2018-05-08T07:14:18.341Z,99.99
2018-05-08T07:15:18.362Z,99.99
2018-05-08T07:16:18.438Z,99.99
2018-05-08T07:17:18.488Z,99.99
2018-05-08T07:18:18.426Z,99.99
2018-05-08T07:19:18.427Z,99.99
2018-05-08T07:20:18.440Z,99.99
2018-05-08T07:21:18.547Z,99.99
2018-05-08T07:22:18.620Z,99.99
2018-05-08T07:23:18.482Z,99.99
2018-05-08T07:24:18.492Z,99.99
2018-05-08T07:25:18.511Z,99.99
2018-05-08T07:26:18.519Z,99.99
2018-05-08T07:27:18.548Z,99.99
2018-05-08T07:28:18.634Z,99.99
2018-05-08T07:29:18.574Z,99.99
2018-05-08T07:30:18.559Z,99.99
2018-05-08T07:31:18.581Z,99.99
2018-05-08T07:32:18.618Z,99.99
2018-05-08T07:33:18.733Z,99.99
2018-05-08T07:34:18.616Z,99.99
2018-05-08T07:35:18.628Z,99.99
2018-05-08T07:36:18.669Z,99.99
2018-05-08T07:37:18.659Z,99.99
2018-05-08T07:38:18.884Z,99.99
2018-05-08T07:39:18.685Z,99.99
2018-05-08T07:40:18.713Z,99.99
2018-05-08T07:41:18.726Z,99.99
2018-05-08T07:42:18.724Z,99.99
2018-05-08T07:43:18.865Z,99.99
2018-05-08T07:44:18.769Z,99.99
2018-05-08T07:45:18.830Z,99.99
2018-05-08T07:46:18.812Z,99.99
2018-05-08T07:47:18.827Z,99.99
2018-05-08T07:48:18.935Z,99.99
2018-05-08T07:49:18.849Z,99.99
2018-05-08T07:50:18.830Z,99.99
2018-05-08T07:51:18.869Z,99.99
2018-05-08T07:52:18.861Z,99.99
2018-05-08T07:53:18.975Z,99.99
2018-05-08T07:54:18.922Z,99.99
2018-05-08T07:55:18.905Z,99.99
2018-05-08T07:56:19.008Z,99.99
2018-05-08T07:57:19.229Z,99.99
2018-05-08T07:58:19.078Z,99.99
2018-05-08T07:59:18.952Z,99.99
2018-05-08T08:00:18.966Z,99.99
2018-05-08T08:01:18.977Z,99.99
2018-05-08T08:02:19.018Z,99.99
2018-05-08T08:03:19.223Z,99.99
2018-05-08T08:04:19.022Z,99.99
2018-05-08T08:05:19.051Z,99.99
2018-05-08T08:06:19.071Z,99.99
2018-05-08T08:07:19.069Z,99.99
2018-05-08T08:08:19.180Z,99.99
2018-05-08T08:09:19.117Z,99.99
2018-05-08T08:10:19.132Z,99.99
2018-05-08T08:11:19.127Z,99.99
2018-05-08T08:12:19.199Z,99.99
2018-05-08T08:13:19.275Z,99.99
2018-05-08T08:14:19.179Z,99.99
2018-05-08T08:15:19.187Z,99.99
2018-05-08T08:16:19.190Z,99.99
2018-05-08T08:17:19.199Z,99.99
2018-05-08T08:18:19.327Z,99.99
2018-05-08T08:19:19.220Z,99.99
2018-05-08T08:20:19.264Z,99.99
2018-05-08T08:21:19.247Z,99.99
2018-05-08T08:22:19.268Z,99.99
2018-05-08T08:23:19.400Z,99.99
2018-05-08T08:24:19.292Z,99.99
2018-05-08T08:25:19.331Z,99.99
2018-05-08T08:26:19.339Z,99.99
2018-05-08T08:27:19.345Z,99.99
2018-05-08T08:28:19.444Z,99.99
2018-05-08T08:29:19.382Z,99.99
2018-05-08T08:30:19.394Z,99.99
2018-05-08T08:31:19.378Z,99.99
2018-05-08T08:32:19.425Z,99.99
2018-05-08T08:33:19.556Z,99.99
2018-05-08T08:34:19.434Z,99.99
2018-05-08T08:35:19.448Z,99.99
2018-05-08T08:36:19.452Z,99.99
2018-05-08T08:37:19.464Z,99.99
2018-05-08T08:38:19.506Z,99.99
2018-05-08T08:39:19.593Z,99.99
2018-05-08T08:40:19.505Z,99.99
2018-05-08T08:41:19.531Z,99.99
2018-05-08T08:42:19.535Z,99.99
2018-05-08T08:43:19.563Z,99.99
2018-05-08T08:44:19.683Z,99.99
2018-05-08T08:45:19.602Z,99.99
2018-05-08T08:46:19.596Z,99.99
2018-05-08T08:47:19.630Z,99.99
2018-05-08T08:48:19.638Z,99.99
2018-05-08T08:49:19.738Z,99.99
2018-05-08T08:50:19.644Z,99.99
2018-05-08T08:51:19.679Z,99.99
2018-05-08T08:52:19.776Z,99.99
2018-05-08T08:53:19.708Z,99.99
2018-05-08T08:54:19.795Z,99.99
2018-05-08T08:55:19.707Z,99.99
2018-05-08T08:56:19.739Z,99.99
2018-05-08T08:57:19.765Z,99.99
2018-05-08T08:58:19.750Z,99.99
2018-05-08T08:59:19.862Z,99.99
2018-05-08T09:00:19.779Z,99.99
2018-05-08T09:01:19.809Z,99.99
2018-05-08T09:02:19.808Z,99.99
2018-05-08T09:03:19.823Z,99.99
2018-05-08T09:04:19.947Z,99.99
2018-05-08T09:05:19.879Z,99.99
2018-05-08T09:06:19.884Z,99.99
2018-05-08T09:07:19.898Z,99.99
2018-05-08T09:08:19.916Z,99.99
2018-05-08T09:09:20.029Z,99.99
2018-05-08T09:10:19.914Z,99.99
2018-05-08T09:11:20.014Z,99.99
2018-05-08T09:12:19.967Z,99.99
2018-05-08T09:13:19.956Z,99.99
2018-05-08T09:14:20.062Z,99.99
2018-05-08T09:15:20.009Z,99.99
2018-05-08T09:16:19.995Z,99.99
2018-05-08T09:17:20.017Z,99.99
2018-05-08T09:18:20.024Z,99.99
2018-05-08T09:19:20.136Z,99.99
2018-05-08T09:20:20.067Z,99.99
2018-05-08T09:21:20.063Z,99.99
2018-05-08T09:22:20.105Z,99.99
2018-05-08T09:23:20.092Z,99.99
2018-05-08T09:24:20.236Z,99.99
2018-05-08T09:25:20.127Z,99.99
2018-05-08T09:26:20.143Z,99.99
2018-05-08T09:27:20.145Z,99.99
2018-05-08T09:28:20.187Z,99.99
2018-05-08T09:29:20.270Z,99.99
2018-05-08T09:30:20.214Z,99.99
2018-05-08T09:31:20.211Z,99.99
2018-05-08T09:32:20.216Z,99.99
2018-05-08T09:33:20.231Z,99.99
2018-05-08T09:34:20.338Z,99.99
2018-05-08T09:35:20.268Z,99.99
2018-05-08T09:36:20.287Z,99.99
2018-05-08T09:37:20.280Z,99.99
2018-05-08T09:38:20.300Z,99.99
2018-05-08T09:39:20.410Z,99.99
2018-05-08T09:40:20.325Z,99.99
2018-05-08T09:41:20.341Z,99.99
2018-05-08T09:42:20.348Z,99.99
2018-05-08T09:43:20.364Z,99.99
2018-05-08T09:44:20.504Z,99.99
2018-05-08T09:45:20.393Z,99.99
2018-05-08T09:46:20.429Z,99.99
2018-05-08T09:47:20.424Z,99.99
2018-05-08T09:48:20.435Z,99.99
2018-05-08T09:49:20.598Z,99.99
2018-05-08T09:50:20.488Z,99.99
2018-05-08T09:51:20.475Z,99.99
2018-05-08T09:52:20.487Z,99.99
2018-05-08T09:53:20.506Z,99.99
2018-05-08T09:54:20.516Z,99.99
2018-05-08T09:55:20.636Z,99.99
2018-05-08T09:56:20.538Z,99.99
2018-05-08T09:57:20.582Z,99.99
2018-05-08T09:58:20.572Z,99.99
2018-05-08T09:59:20.596Z,99.99
2018-05-08T10:00:20.727Z,99.99
2018-05-08T10:01:20.634Z,99.99
2018-05-08T10:02:20.638Z,99.99
2018-05-08T10:03:20.660Z,99.99
2018-05-08T10:04:20.649Z,99.99
2018-05-08T10:05:20.773Z,99.99
2018-05-08T10:06:20.689Z,99.99
2018-05-08T10:07:20.724Z,99.99
2018-05-08T10:08:20.740Z,99.99
2018-05-08T10:09:20.724Z,99.99
2018-05-08T10:10:20.833Z,99.99
2018-05-08T10:11:20.760Z,99.99
2018-05-08T10:12:20.773Z,99.99
2018-05-08T10:13:20.782Z,99.99
2018-05-08T10:14:20.797Z,99.99
2018-05-08T10:15:20.915Z,99.99
2018-05-08T10:16:20.847Z,99.99
2018-05-08T10:17:20.849Z,99.99
2018-05-08T10:18:20.850Z,99.99
2018-05-08T10:19:20.889Z,98.96
2018-05-08T10:20:21.007Z,99.05
2018-05-08T10:21:20.892Z,98.48
2018-05-08T10:22:20.909Z,99.05
2018-05-08T10:23:20.921Z,99.34
2018-05-08T10:24:20.961Z,98.58
2018-05-08T10:25:21.049Z,98.58
2018-05-08T10:26:20.965Z,97.14
2018-05-08T10:27:21.002Z,96.75
2018-05-08T10:28:20.992Z,96.18
2018-05-08T10:29:21.034Z,96.47
2018-05-08T10:30:21.120Z,94.11
2018-05-08T10:31:21.050Z,93.82
2018-05-08T10:32:21.053Z,93.54
2018-05-08T10:33:21.068Z,92.19
2018-05-08T10:34:21.084Z,91.23
2018-05-08T10:35:21.228Z,91.04
2018-05-08T10:36:21.132Z,90.37
2018-05-08T10:37:21.125Z,90.46
2018-05-08T10:38:21.140Z,90.75
2018-05-08T10:39:21.184Z,90.46
2018-05-08T10:40:21.169Z,90.41
2018-05-08T10:41:21.195Z,88.87
2018-05-08T10:42:21.194Z,87.15
2018-05-08T10:43:21.248Z,86.38
2018-05-08T10:44:21.326Z,85.13
2018-05-08T10:45:21.270Z,82.96
2018-05-08T10:46:21.270Z,83.15
2018-05-08T10:47:21.300Z,82.38
2018-05-08T10:48:21.304Z,81.81
2018-05-08T10:49:21.433Z,80.07
2018-05-08T10:50:21.344Z,78.77
2018-05-08T10:51:21.358Z,76.94
2018-05-08T10:52:21.352Z,76.65
2018-05-08T10:53:21.366Z,75.40
2018-05-08T10:54:21.537Z,76.36
2018-05-08T10:55:21.399Z,76.46
2018-05-08T10:56:21.442Z,74.25
2018-05-08T10:57:21.453Z,73.00
2018-05-08T10:58:21.472Z,72.90
2018-05-08T10:59:21.463Z,73.00
2018-05-08T11:00:21.573Z,72.45
2018-05-08T11:01:21.496Z,71.20
2018-05-08T11:02:21.508Z,70.82
2018-05-08T11:03:21.525Z,70.53
2018-05-08T11:04:21.541Z,69.67
2018-05-08T11:05:21.669Z,69.85
2018-05-08T11:06:21.583Z,68.13
2018-05-08T11:07:21.602Z,68.35
2018-05-08T11:08:21.606Z,66.81
2018-05-08T11:09:21.625Z,66.91
2018-05-08T11:10:21.752Z,65.66
2018-05-08T11:11:21.669Z,64.73
2018-05-08T11:12:21.747Z,65.01
2018-05-08T11:13:21.722Z,64.25
2018-05-08T11:14:21.709Z,62.99
2018-05-08T11:15:21.878Z,62.70
2018-05-08T11:16:21.771Z,62.70
2018-05-08T11:17:21.766Z,64.15
2018-05-08T11:18:21.778Z,63.67
2018-05-08T11:19:21.807Z,63.38
2018-05-08T11:20:21.912Z,62.90
2018-05-08T11:21:21.855Z,61.29
2018-05-08T11:22:21.877Z,62.15
2018-05-08T11:23:21.902Z,60.90
2018-05-08T11:24:21.878Z,61.25
2018-05-08T11:25:22.003Z,61.93
2018-05-08T11:26:21.938Z,62.22
2018-05-08T11:27:21.958Z,62.70
2018-05-08T11:28:22.023Z,62.51
2018-05-08T11:29:21.965Z,62.77
2018-05-08T11:30:22.108Z,63.34
2018-05-08T11:31:22.013Z,64.21
2018-05-08T11:32:22.043Z,64.89
2018-05-08T11:33:22.051Z,64.98
2018-05-08T11:34:22.089Z,64.89
2018-05-08T11:35:22.215Z,65.56
2018-05-08T11:36:22.091Z,65.75
2018-05-08T11:37:22.109Z,65.85
2018-05-08T11:38:22.119Z,64.69
2018-05-08T11:39:22.235Z,64.89
2018-05-08T11:40:22.249Z,64.02
2018-05-08T11:41:22.172Z,64.79
2018-05-08T11:42:22.217Z,63.64
2018-05-08T11:43:22.229Z,63.09
2018-05-08T11:44:22.235Z,61.83
2018-05-08T11:45:22.364Z,61.93
2018-05-08T11:46:22.282Z,61.55
2018-05-08T11:47:22.276Z,62.32
2018-05-08T11:48:22.294Z,61.65
2018-05-08T11:49:22.308Z,61.83
2018-05-08T11:50:22.451Z,61.45
2018-05-08T11:51:22.380Z,61.25
2018-05-08T11:52:22.376Z,61.25
2018-05-08T11:53:22.383Z,61.45
2018-05-08T11:54:22.399Z,60.87
2018-05-08T11:55:22.521Z,62.32
2018-05-08T11:56:22.443Z,62.12
2018-05-08T11:57:22.447Z,62.80
2018-05-08T11:58:22.467Z,62.90
2018-05-08T11:59:22.493Z,62.60
2018-05-08T12:00:22.525Z,62.12
2018-05-08T12:01:22.616Z,62.12
2018-05-08T12:02:22.542Z,61.83
2018-05-08T12:03:22.595Z,61.83
2018-05-08T12:04:22.588Z,61.83
2018-05-08T12:05:22.617Z,61.45
2018-05-08T12:06:22.729Z,60.87
2018-05-08T12:07:22.622Z,61.16
2018-05-08T12:08:22.653Z,61.45
2018-05-08T12:09:22.655Z,61.74
2018-05-08T12:10:22.701Z,60.20
2018-05-08T12:11:22.795Z,61.07
2018-05-08T12:12:22.722Z,60.20
2018-05-08T12:13:22.729Z,59.91
2018-05-08T12:14:22.742Z,59.14
2018-05-08T12:15:23.791Z,59.91
2018-05-08T12:16:22.901Z,60.49
2018-05-08T12:17:22.824Z,60.58
2018-05-08T12:18:22.813Z,61.93
2018-05-08T12:19:22.861Z,61.93
2018-05-08T12:20:22.857Z,63.28
2018-05-08T12:21:22.967Z,61.90
2018-05-08T12:22:22.904Z,62.19
2018-05-08T12:23:22.926Z,61.52
2018-05-08T12:24:22.947Z,60.36
2018-05-08T12:25:22.958Z,60.75
2018-05-08T12:26:23.040Z,60.84
2018-05-08T12:27:22.965Z,61.42
2018-05-08T12:28:23.008Z,61.61
2018-05-08T12:29:23.022Z,61.80
2018-05-08T12:30:23.044Z,62.00
2018-05-08T12:31:23.133Z,62.38
2018-05-08T12:32:23.057Z,61.71
2018-05-08T12:33:23.064Z,62.67
2018-05-08T12:34:23.106Z,62.77
2018-05-08T12:35:23.123Z,62.00
2018-05-08T12:36:23.211Z,61.52
2018-05-08T12:37:23.128Z,62.38
2018-05-08T12:38:23.171Z,60.94
2018-05-08T12:39:23.160Z,61.61
2018-05-08T12:40:23.182Z,60.84
2018-05-08T12:41:23.357Z,60.65
2018-05-08T12:42:23.234Z,61.32
2018-05-08T12:43:23.254Z,60.65
2018-05-08T12:44:23.274Z,61.04
2018-05-08T12:45:23.275Z,61.13
2018-05-08T12:47:23.420Z,61.32
2018-05-08T12:48:23.333Z,60.46
2018-05-08T12:49:23.337Z,60.17
2018-05-08T12:50:23.347Z,59.78
2018-05-08T12:51:23.360Z,60.39
2018-05-08T12:52:23.527Z,60.77
2018-05-08T12:53:23.406Z,58.65